Time;durP1;ratioP1;P1;durP2;ratioP2;P2;SDS_P1;SDS_P2;PMS_P1;PMS_P2;Temp;Humidity;BMP_temperature;BMP_pressure;BME280_temperature;BME280_humidity;BME280_pressure;Samples;Min_cycle;Max_cycle;Signal;HPM_P1;HPM_P2
2022/08/13 00:01:53;;;;;;;15.25;13.05;;;;;;;27.84;56.55;100972.66;1580603;90;21141;-50
2022/08/13 00:04:21;;;;;;;14.75;13.05;;;;;;;27.85;56.53;100978.34;1580886;90;21085;-52
2022/08/13 00:09:17;;;;;;;17.62;12.73;;;;;;;27.82;56.54;100978.12;1579506;90;21053;-55
2022/08/13 00:14:16;;;;;;;18.62;12.88;;;;;;;27.81;56.64;100974.25;1554414;92;21068;-50
2022/08/13 00:16:44;;;;;;;17.12;12.25;;;;;;;27.80;56.65;100972.58;1557480;92;21083;-54
2022/08/13 00:19:10;;;;;;;15.88;12.07;;;;;;;27.78;56.77;100966.52;1551631;92;21569;-52
2022/08/13 00:21:37;;;;;;;15.48;11.95;;;;;;;27.78;56.87;100969.20;1535363;92;21588;-53
2022/08/13 00:24:05;;;;;;;14.23;12.63;;;;;;;27.76;56.94;100968.49;1514327;94;21147;-51
2022/08/13 00:26:33;;;;;;;15.30;12.40;;;;;;;27.76;57.05;100963.97;1515529;94;21578;-51
2022/08/13 00:29:00;;;;;;;21.57;13.20;;;;;;;27.77;57.10;100959.47;1511737;94;21071;-52
2022/08/13 00:31:28;;;;;;;16.12;12.55;;;;;;;27.78;57.16;100963.85;1508881;94;21090;-51
2022/08/13 00:33:55;;;;;;;15.23;11.90;;;;;;;27.78;57.25;100953.16;1499354;94;21616;-50
2022/08/13 00:36:22;;;;;;;13.83;11.12;;;;;;;27.76;57.28;100955.13;1497842;95;21107;-51
2022/08/13 00:38:49;;;;;;;14.98;11.15;;;;;;;27.76;57.37;100952.45;1497823;94;21178;-55
2022/08/13 00:44:04;;;;;;;15.48;11.57;;;;;;;27.75;57.50;100950.74;1497956;95;21177;-50
2022/08/13 00:46:32;;;;;;;13.40;11.78;;;;;;;27.75;57.48;100956.94;1497172;94;21176;-50
2022/08/13 00:49:01;;;;;;;12.53;11.20;;;;;;;27.75;57.47;100953.41;1495577;95;21215;-51
2022/08/13 00:51:29;;;;;;;15.53;11.20;;;;;;;27.75;57.50;100950.74;1503581;94;21093;-52
2022/08/13 00:53:58;;;;;;;12.30;10.90;;;;;;;27.73;57.58;100950.03;1527502;94;21061;-51
2022/08/13 00:56:25;;;;;;;14.83;11.90;;;;;;;27.73;57.48;100950.03;1605563;89;21038;-53
2022/08/13 00:58:52;;;;;;;13.68;11.48;;;;;;;27.72;57.48;100953.70;1667421;83;21049;-50
2022/08/13 01:01:24;;;;;;;15.78;11.60;;;;;;;27.71;57.55;100957.34;1702221;84;21081;-53
2022/08/13 01:03:48;;;;;;;13.05;11.33;;;;;;;27.70;57.61;100953.82;1701585;83;21024;-52
2022/08/13 01:06:15;;;;;;;18.05;12.90;;;;;;;27.70;57.58;100957.02;1701314;82;21030;-53
2022/08/13 01:08:42;;;;;;;14.00;12.07;;;;;;;27.70;57.57;100955.16;1698947;82;21617;-56
2022/08/13 01:11:13;;;;;;;17.20;12.10;;;;;;;27.69;57.61;100948.63;1699606;82;21070;-51
2022/08/13 01:13:43;;;;;;;;;;;;;;;27.71;57.67;100953.34;1701687;82;21032;-50
2022/08/13 01:16:13;;;;;;;13.25;11.43;;;;;;;27.71;57.68;100954.67;1699020;82;20105;-49
2022/08/13 01:18:48;;;;;;;17.87;12.18;;;;;;;27.68;57.68;100951.78;1699319;82;21069;-49
2022/08/13 01:21:22;;;;;;;15.20;11.18;;;;;;;27.67;57.81;100950.11;1690328;84;21107;-50
2022/08/13 01:23:51;;;;;;;16.30;11.15;;;;;;;27.67;57.78;100951.44;1692526;83;21022;-51
2022/08/13 01:26:19;;;;;;;13.43;11.25;;;;;;;27.69;57.70;100957.98;1679937;83;21547;-52
2022/08/13 01:28:48;;;;;;;18.27;12.80;;;;;;;27.70;57.73;100958.34;1686020;83;21575;-50
2022/08/13 01:31:15;;;;;;;13.48;11.57;;;;;;;27.71;57.71;100954.67;1692522;83;21024;-54
2022/08/13 01:33:43;;;;;;;14.53;11.97;;;;;;;27.72;57.64;100949.70;1717233;81;21096;-51
2022/08/13 01:36:11;;;;;;;14.40;12.23;;;;;;;27.76;57.50;100952.45;1723246;81;21020;-50
2022/08/13 01:38:41;;;;;;;17.25;11.93;;;;;;;27.74;57.55;100949.06;1724701;81;21052;-53
2022/08/13 01:41:08;;;;;;;14.45;11.93;;;;;;;27.73;57.55;100955.38;1723184;82;21040;-51
2022/08/13 01:43:38;;;;;;;13.03;11.68;;;;;;;27.72;57.59;100949.70;1726273;81;21040;-49
2022/08/13 01:46:07;;;;;;;13.93;11.65;;;;;;;27.71;57.63;100952.00;1714593;81;21088;-51
2022/08/13 01:51:24;;;;;;;16.67;12.05;;;;;;;27.69;57.65;100948.63;1720498;81;21493;-52
2022/08/13 01:53:59;;;;;;;16.70;11.83;;;;;;;27.68;57.67;100950.92;1724944;81;21469;-52
2022/08/13 01:56:28;;;;;;;14.45;11.28;;;;;;;27.67;57.63;100951.44;1719518;81;21584;-53
2022/08/13 01:58:58;;;;;;;16.60;11.15;;;;;;;27.65;57.73;100949.88;1726323;81;20984;-53
2022/08/13 02:01:26;;;;;;;13.18;10.68;;;;;;;27.64;57.81;100948.17;1722190;82;21579;-50
2022/08/13 02:03:56;;;;;;;16.75;11.48;;;;;;;27.63;57.79;100944.68;1726094;81;21076;-54
2022/08/13 02:06:30;;;;;;;15.80;11.45;;;;;;;27.63;57.81;100943.83;1726382;81;20992;-51
2022/08/13 02:09:03;;;;;;;14.63;11.18;;;;;;;27.64;57.83;100945.50;1725621;81;21060;-50
2022/08/13 02:11:34;;;;;;;13.83;10.95;;;;;;;27.61;58.11;100948.47;1724185;81;21011;-49
2022/08/13 02:14:03;;;;;;;16.05;12.03;;;;;;;27.61;58.11;100948.47;1713664;81;21105;-50
2022/08/13 02:16:32;;;;;;;13.75;11.50;;;;;;;27.59;58.01;100943.75;1723301;81;21095;-52
2022/08/13 02:19:02;;;;;;;13.98;11.93;;;;;;;27.60;58.08;100945.42;1695630;83;21537;-49
2022/08/13 02:21:36;;;;;;;18.32;12.07;;;;;;;27.62;58.16;100944.80;1696582;84;21479;-51
2022/08/13 02:24:04;;;;;;;15.75;11.70;;;;;;;27.64;58.15;100948.17;1700213;84;21036;-51
2022/08/13 02:26:32;;;;;;;16.37;12.03;;;;;;;27.65;58.12;100948.06;1693713;84;21537;-50
2022/08/13 02:29:01;;;;;;;15.25;11.53;;;;;;;27.66;58.06;100946.20;1699357;84;21070;-51
2022/08/13 02:31:28;;;;;;;15.78;11.48;;;;;;;27.66;57.96;100951.55;1696788;84;21004;-51
2022/08/13 02:33:56;;;;;;;13.05;11.70;;;;;;;27.62;57.91;100940.30;1696485;84;21079;-51
2022/08/13 02:36:23;;;;;;;12.98;11.63;;;;;;;27.61;57.87;100944.45;1697860;84;21075;-51
2022/08/13 02:38:56;;;;;;;17.12;12.95;;;;;;;27.58;57.95;100935.36;1698953;84;21039;-49
2022/08/13 02:41:38;;;;;;;13.35;11.08;;;;;;;27.57;58.05;100938.55;1669283;85;21063;-51
2022/08/13 02:44:06;;;;;;;17.50;12.20;;;;;;;27.57;58.04;100938.55;1672526;85;21100;-48
2022/08/13 02:46:32;;;;;;;14.68;11.55;;;;;;;27.57;58.10;100936.36;1674614;85;21053;-53
2022/08/13 02:49:01;;;;;;;14.68;13.10;;;;;;;27.58;58.09;100934.88;1671819;85;21053;-49
2022/08/13 02:51:30;;;;;;;16.15;13.20;;;;;;;27.58;58.06;100940.70;1672172;85;21135;-52
2022/08/13 02:54:01;;;;;;;17.17;12.68;;;;;;;27.59;58.03;100939.73;1675929;85;20996;-51
2022/08/13 02:56:29;;;;;;;18.05;12.95;;;;;;;27.59;58.09;100943.27;1671100;85;21105;-51
2022/08/13 02:58:56;;;;;;;17.35;12.75;;;;;;;27.59;58.06;100934.39;1672516;85;21574;-50
2022/08/13 03:01:24;;;;;;;18.00;12.58;;;;;;;27.60;58.09;100936.06;1672288;85;21058;-51
2022/08/13 03:03:53;;;;;;;13.50;11.55;;;;;;;27.61;58.01;100943.13;1672134;85;21006;-52
2022/08/13 03:06:21;;;;;;;18.45;13.28;;;;;;;27.62;58.01;100934.95;1672274;85;21013;-50
2022/08/13 03:08:51;;;;;;;16.42;12.78;;;;;;;27.62;57.92;100936.77;1671807;85;21572;-52
2022/08/13 03:11:19;;;;;;;14.40;12.88;;;;;;;27.61;57.86;100930.61;1671409;85;21036;-51
2022/08/13 03:13:57;;;;;;;15.00;12.55;;;;;;;27.62;57.81;100935.44;1673824;85;21572;-50
2022/08/13 03:16:26;;;;;;;20.35;12.68;;;;;;;27.61;57.79;100935.09;1665413;85;21063;-54
2022/08/13 03:18:54;;;;;;;14.70;12.05;;;;;;;27.59;57.85;100931.72;1654386;86;21514;-53
2022/08/13 03:21:32;;;;;;;13.85;12.28;;;;;;;27.59;57.76;100938.41;1658962;86;21082;-49
2022/08/13 03:24:00;;;;;;;15.08;12.15;;;;;;;27.59;57.91;100935.25;1655286;86;21049;-49
2022/08/13 03:26:27;;;;;;;15.93;12.40;;;;;;;27.59;57.96;100934.39;1660881;86;21049;-52
2022/08/13 03:28:54;;;;;;;13.43;11.95;;;;;;;27.60;58.01;100934.73;1661193;86;21073;-51
2022/08/13 03:31:21;;;;;;;13.48;11.68;;;;;;;27.61;58.07;100935.09;1660527;85;21026;-50
2022/08/13 03:33:48;;;;;;;17.23;13.28;;;;;;;27.62;58.15;100936.77;1660653;86;21038;-53
2022/08/13 03:36:15;;;;;;;17.32;12.53;;;;;;;27.62;58.25;100933.62;1660845;86;21025;-50
2022/08/13 03:38:42;;;;;;;14.45;13.05;;;;;;;27.62;58.28;100935.44;1718979;81;21512;-53
2022/08/13 03:41:11;;;;;;;19.15;13.48;;;;;;;27.61;58.37;100929.75;1732410;81;21015;-52
2022/08/13 03:43:42;;;;;;;15.28;13.13;;;;;;;27.63;58.33;100938.48;1731826;81;21499;-51
2022/08/13 03:46:12;;;;;;;16.85;13.50;;;;;;;27.61;58.33;100938.63;1731136;81;20979;-52
2022/08/13 03:48:39;;;;;;;15.85;12.70;;;;;;;27.63;58.31;100938.48;1732011;81;21069;-50
2022/08/13 03:51:07;;;;;;;13.70;12.07;;;;;;;27.63;58.24;100943.83;1736344;81;21047;-52
2022/08/13 03:53:34;;;;;;;15.68;12.78;;;;;;;27.61;58.30;100936.44;1733867;81;21038;-53
2022/08/13 03:56:01;;;;;;;14.00;12.50;;;;;;;27.62;58.32;100943.45;1731903;81;21031;-49
2022/08/13 03:58:28;;;;;;;19.40;12.68;;;;;;;27.63;58.38;100939.81;1734220;81;21074;-52
2022/08/13 04:00:55;;;;;;;16.17;12.82;;;;;;;27.64;58.40;100938.81;1734139;82;21054;-50
2022/08/13 04:03:36;;;;;;;14.70;13.13;;;;;;;27.66;58.24;100943.53;1734101;81;21071;-49
2022/08/13 04:06:15;;;;;;;16.02;13.15;;;;;;;27.67;58.31;100937.22;1736543;81;21020;-52
2022/08/13 04:08:43;;;;;;;15.75;12.80;;;;;;;27.68;58.36;100948.25;1639202;86;21546;-53
2022/08/13 04:11:13;;;;;;;16.42;13.95;;;;;;;27.70;58.46;100947.66;1635837;87;21046;-53
2022/08/13 04:13:40;;;;;;;16.05;13.13;;;;;;;27.73;58.55;100944.20;1637457;86;21510;-49
2022/08/13 04:16:11;;;;;;;14.93;12.93;;;;;;;27.75;58.61;100942.72;1636877;86;21058;-51
2022/08/13 04:18:39;;;;;;;15.20;13.65;;;;;;;27.78;58.58;100939.27;1640350;86;20991;-51
2022/08/13 04:21:09;;;;;;;17.10;13.13;;;;;;;27.81;58.59;100944.84;1639719;86;21042;-55
2022/08/13 04:23:41;;;;;;;16.07;12.53;;;;;;;27.83;58.72;100944.20;1641229;86;21014;-51
2022/08/13 04:26:09;;;;;;;16.82;13.58;;;;;;;27.87;58.86;100944.28;1641541;87;21114;-51
2022/08/13 04:28:38;;;;;;;18.48;13.28;;;;;;;27.91;58.85;100936.33;1640736;86;21061;-49
2022/08/13 04:31:05;;;;;;;14.93;13.30;;;;;;;27.94;58.79;100940.08;1638492;86;21054;-53
2022/08/13 04:33:33;;;;;;;15.35;13.38;;;;;;;27.95;58.75;100945.77;1640801;87;21046;-51
2022/08/13 04:36:00;;;;;;;15.83;13.22;;;;;;;27.97;58.66;100939.81;1638454;86;21118;-49
2022/08/13 04:38:27;;;;;;;16.15;13.45;;;;;;;27.98;58.64;100950.88;1638030;86;21591;-52
2022/08/13 04:40:53;;;;;;;17.07;14.00;;;;;;;28.01;58.63;100951.92;1628189;86;21042;-49
2022/08/13 04:43:21;;;;;;;15.30;12.95;;;;;;;28.03;58.52;100953.96;1636879;86;21582;-50
2022/08/13 04:45:48;;;;;;;15.25;13.75;;;;;;;28.04;58.50;100949.83;1638522;86;21043;-52
2022/08/13 04:48:15;;;;;;;15.40;13.80;;;;;;;28.05;58.57;100947.49;1638059;86;21531;-51
2022/08/13 04:50:46;;;;;;;17.57;14.65;;;;;;;28.07;58.54;100951.36;1641668;86;21106;-53
2022/08/13 04:53:33;;;;;;;18.85;14.90;;;;;;;28.09;58.64;100948.91;1637372;86;21050;-52
2022/08/13 04:56:01;;;;;;;16.75;14.95;;;;;;;28.11;58.75;100947.41;1637228;87;21125;-50
2022/08/13 04:58:33;;;;;;;17.70;15.23;;;;;;;28.12;58.78;100952.65;1641724;86;21123;-52
2022/08/13 05:00:58;;;;;;;18.50;15.10;;;;;;;28.14;58.89;100952.50;1635000;86;21101;-51
2022/08/13 05:03:25;;;;;;;16.45;14.78;;;;;;;28.15;59.00;100954.20;1636065;86;21066;-49
2022/08/13 05:05:52;;;;;;;20.12;16.30;;;;;;;28.18;59.06;100956.58;1704685;81;21074;-53
2022/08/13 05:08:19;;;;;;;20.57;16.45;;;;;;;28.20;59.08;100947.92;1735486;81;21016;-52
2022/08/13 05:10:48;;;;;;;20.60;15.90;;;;;;;28.26;59.14;100950.52;1735538;81;21941;-55
2022/08/13 05:13:27;;;;;;;16.87;14.83;;;;;;;28.28;59.13;100949.39;1733758;81;21551;-54
2022/08/13 05:15:56;;;;;;;17.48;15.58;;;;;;;28.31;59.10;100944.26;1740272;81;21554;-52
2022/08/13 05:18:23;;;;;;;19.73;16.05;;;;;;;28.32;59.13;100944.11;1734438;81;21526;-52
2022/08/13 05:20:53;;;;;;;20.72;16.15;;;;;;;28.35;59.16;100943.84;1735110;82;21039;-50
2022/08/13 05:23:23;;;;;;;18.55;16.17;;;;;;;28.38;59.15;100942.20;1736816;81;20971;-50
2022/08/13 05:25:50;;;;;;;18.15;16.35;;;;;;;28.41;59.24;100941.92;1694180;83;21074;-51
2022/08/13 05:28:17;;;;;;;18.65;16.80;;;;;;;28.43;59.23;100939.95;1691521;83;21571;-51
2022/08/13 05:30:47;;;;;;;19.07;16.60;;;;;;;28.46;59.22;100940.98;1688903;83;21590;-51
2022/08/13 05:33:22;;;;;;;18.50;16.55;;;;;;;28.51;59.25;100940.08;1690277;83;21628;-51
2022/08/13 05:36:02;;;;;;;19.95;17.32;;;;;;;28.56;59.10;100941.87;1597674;88;21074;-52
2022/08/13 05:38:30;;;;;;;20.52;16.48;;;;;;;28.59;59.05;100950.94;1591269;88;21054;-52
2022/08/13 05:40:59;;;;;;;21.35;17.40;;;;;;;28.62;58.99;100947.99;1598188;87;21602;-49
2022/08/13 05:43:28;;;;;;;17.52;15.83;;;;;;;28.65;59.05;100946.34;1595480;88;21086;-50
2022/08/13 05:45:58;;;;;;;18.10;16.20;;;;;;;28.69;59.12;100945.06;1595882;88;21104;-50
2022/08/13 05:48:29;;;;;;;18.55;16.70;;;;;;;28.76;58.91;100946.19;1592616;88;21026;-52
2022/08/13 05:50:59;;;;;;;21.17;17.12;;;;;;;28.81;58.91;100950.59;1598021;88;21014;-52
2022/08/13 05:53:27;;;;;;;18.37;16.57;;;;;;;28.89;58.88;100949.37;1598184;88;21042;-52
2022/08/13 05:55:54;;;;;;;19.25;17.27;;;;;;;28.98;58.88;100949.85;1594444;89;21069;-52
2022/08/13 05:58:22;;;;;;;18.70;16.15;;;;;;;29.12;59.05;100945.02;1591364;88;21042;-49
2022/08/13 06:03:36;;;;;;;18.40;16.70;;;;;;;29.43;58.08;100949.14;1595192;88;21061;-50
2022/08/13 06:06:06;;;;;;;18.15;16.55;;;;;;;29.59;57.50;100946.64;1594685;88;21050;-53
2022/08/13 06:08:37;;;;;;;17.45;15.95;;;;;;;29.75;56.74;100954.89;1596339;88;21042;-51
2022/08/13 06:11:06;;;;;;;17.57;15.90;;;;;;;29.90;55.64;100952.05;1590393;88;21046;-49
2022/08/13 06:13:33;;;;;;;20.02;17.27;;;;;;;30.03;55.01;100951.14;1597950;88;21062;-51
2022/08/13 06:16:00;;;;;;;18.80;16.97;;;;;;;30.13;54.66;100951.91;1595544;88;21050;-49
2022/08/13 06:18:31;;;;;;;18.07;16.48;;;;;;;30.20;54.64;100952.14;1596092;88;21078;-51
2022/08/13 06:21:02;;;;;;;18.37;16.73;;;;;;;30.29;54.49;100960.16;1490291;95;21164;-52
2022/08/13 06:23:30;;;;;;;18.37;16.85;;;;;;;30.36;54.20;100955.84;1474950;97;21597;-52
2022/08/13 06:25:58;;;;;;;17.30;15.90;;;;;;;30.42;54.04;100955.22;1474396;96;21127;-51
2022/08/13 06:28:29;;;;;;;17.23;15.40;;;;;;;30.48;53.62;100953.25;1474387;96;21182;-49
2022/08/13 06:30:59;;;;;;;16.17;14.68;;;;;;;30.50;53.42;100949.91;1474493;96;21152;-50
2022/08/13 06:33:26;;;;;;;16.00;14.60;;;;;;;30.52;53.49;100955.96;1534775;92;22403;-51
2022/08/13 06:36:00;;;;;;;16.20;14.63;;;;;;;30.53;53.56;100949.61;1550155;92;21053;-53
2022/08/13 06:38:36;;;;;;;17.00;15.50;;;;;;;30.55;53.87;100953.47;1549827;92;21104;-51
2022/08/13 06:41:05;;;;;;;15.43;13.95;;;;;;;30.58;53.97;100957.70;1549531;92;21108;-51
2022/08/13 06:43:44;;;;;;;15.10;13.83;;;;;;;30.65;54.02;100961.42;1549548;92;21071;-51
2022/08/13 06:46:12;;;;;;;15.30;14.00;;;;;;;30.73;53.85;100960.16;1549570;92;21096;-54
2022/08/13 06:48:39;;;;;;;16.67;15.15;;;;;;;30.84;53.63;100965.25;1550089;92;21121;-51
2022/08/13 06:51:09;;;;;;;15.72;14.35;;;;;;;30.95;53.18;100970.41;1550712;92;21100;-55
2022/08/13 06:53:35;;;;;;;15.05;13.70;;;;;;;31.03;52.96;100962.39;1550936;92;21048;-49
2022/08/13 06:56:05;;;;;;;15.63;14.25;;;;;;;31.09;52.57;100965.28;1552643;92;21186;-53
2022/08/13 06:58:32;;;;;;;16.35;14.85;;;;;;;31.14;52.33;100964.28;1549613;92;21075;-54
2022/08/13 07:00:59;;;;;;;15.78;14.33;;;;;;;31.19;52.22;100967.84;1549640;92;21203;-51
2022/08/13 07:03:30;;;;;;;15.50;14.30;;;;;;;31.23;52.03;100973.23;1550618;92;21089;-54
2022/08/13 07:05:57;;;;;;;17.48;13.70;;;;;;;31.23;51.84;100971.89;1550199;92;21122;-55
2022/08/13 07:08:25;;;;;;;15.90;14.50;;;;;;;31.22;51.84;100978.29;1550253;92;21045;-52
2022/08/13 07:13:27;;;;;;;14.70;13.50;;;;;;;31.23;51.95;100973.23;1494339;95;21086;-52
2022/08/13 07:15:54;;;;;;;14.93;13.72;;;;;;;31.25;51.99;100969.89;1483739;96;21114;-52
2022/08/13 07:18:21;;;;;;;15.43;13.88;;;;;;;31.30;52.03;100968.91;1569583;90;21114;-54
2022/08/13 07:20:47;;;;;;;13.98;12.88;;;;;;;31.36;51.92;100969.61;1618997;88;21063;-54
2022/08/13 07:23:14;;;;;;;14.55;13.25;;;;;;;31.42;51.84;100966.30;1632732;87;21052;-57
2022/08/13 07:25:41;;;;;;;13.78;12.47;;;;;;;31.48;51.79;100961.63;1634880;86;21092;-50
2022/08/13 07:28:08;;;;;;;13.60;12.40;;;;;;;31.53;51.41;100965.17;1620716;88;21567;-52
2022/08/13 07:30:35;;;;;;;14.45;13.08;;;;;;;31.52;51.47;100967.02;1633696;88;21088;-49
2022/08/13 07:33:01;;;;;;;14.05;12.85;;;;;;;31.53;51.63;100964.64;1633879;88;21649;-50
2022/08/13 07:35:30;;;;;;;15.08;13.58;;;;;;;31.52;51.92;100964.33;1629931;88;21713;-55
2022/08/13 07:37:58;;;;;;;14.35;13.05;;;;;;;31.57;52.00;100960.66;1629814;86;21106;-52
2022/08/13 07:40:24;;;;;;;14.45;13.15;;;;;;;31.63;51.81;100960.00;1628939;88;21102;-49
2022/08/13 07:42:51;;;;;;;14.83;13.38;;;;;;;31.71;51.62;100964.06;1630015;87;21056;-52
2022/08/13 07:45:27;;;;;;;15.43;13.98;;;;;;;31.78;51.35;100965.06;1630153;87;21136;-52
2022/08/13 07:47:55;;;;;;;15.13;13.58;;;;;;;31.85;51.25;100963.41;1629411;88;21565;-50
2022/08/13 07:50:23;;;;;;;15.58;14.07;;;;;;;31.92;51.09;100966.29;1669587;82;20999;-51
2022/08/13 07:55:19;;;;;;;15.15;13.85;;;;;;;32.02;50.86;100962.97;1689648;84;21022;-52
2022/08/13 07:57:47;;;;;;;14.65;13.35;;;;;;;32.05;50.83;100968.86;1689853;84;21593;-49
2022/08/13 08:00:29;;;;;;;15.40;13.98;;;;;;;32.06;50.48;100970.55;1689655;84;21033;-54
2022/08/13 08:03:03;;;;;;;14.70;13.25;;;;;;;32.07;50.30;100973.56;1689570;84;21592;-50
2022/08/13 08:05:35;;;;;;;14.60;13.32;;;;;;;32.03;50.35;100966.84;1688305;85;21068;-50
2022/08/13 08:08:04;;;;;;;14.63;13.32;;;;;;;32.02;50.52;100973.25;1689772;84;21489;-50
2022/08/13 08:10:32;;;;;;;15.58;14.18;;;;;;;31.99;50.42;100973.56;1689829;84;21001;-51
2022/08/13 08:13:00;;;;;;;14.45;13.32;;;;;;;32.00;50.54;100966.34;1689695;84;21045;-55
2022/08/13 08:15:27;;;;;;;16.17;14.78;;;;;;;31.99;50.46;100968.17;1689611;84;21080;-49
2022/08/13 08:17:54;;;;;;;17.40;15.83;;;;;;;31.97;50.55;100968.84;1689450;84;21092;-51
2022/08/13 08:20:21;;;;;;;16.12;14.55;;;;;;;31.96;50.74;100971.19;1689951;84;21097;-50
2022/08/13 08:22:50;;;;;;;15.72;14.38;;;;;;;31.96;50.58;100972.53;1689445;84;21021;-53
2022/08/13 08:25:18;;;;;;;15.53;14.23;;;;;;;31.97;49.99;100969.34;1689653;84;21033;-51
2022/08/13 08:27:45;;;;;;;16.30;14.75;;;;;;;31.95;49.94;100968.66;1689930;85;21569;-49
2022/08/13 08:30:20;;;;;;;16.32;14.83;;;;;;;31.96;50.00;100964.98;1689466;84;21053;-49
2022/08/13 08:32:56;;;;;;;17.05;15.35;;;;;;;31.99;49.73;100965.48;1689887;84;21009;-50
2022/08/13 08:35:23;;;;;;;16.60;15.20;;;;;;;32.02;49.62;100962.48;1619393;87;21047;-54
2022/08/13 08:43:36;;;;;;;16.95;15.35;;;;;;;32.11;49.60;100957.91;1612694;88;21491;-52
2022/08/13 08:46:04;;;;;;;16.80;15.30;;;;;;;32.12;49.58;100949.34;1589957;90;21125;-51
2022/08/13 08:48:32;;;;;;;15.90;14.33;;;;;;;32.15;49.63;100947.67;1590122;90;21559;-50
2022/08/13 08:51:00;;;;;;;16.67;14.83;;;;;;;32.18;49.86;100950.02;1592840;90;21054;-51
2022/08/13 08:53:28;;;;;;;14.50;13.22;;;;;;;32.22;49.98;100951.36;1581626;90;21636;-52
2022/08/13 08:55:55;;;;;;;15.85;14.20;;;;;;;32.28;50.15;100950.69;1594215;90;21014;-51
2022/08/13 08:58:22;;;;;;;16.30;14.23;;;;;;;32.33;49.48;100952.39;1587909;88;21080;-53
2022/08/13 09:00:50;;;;;;;16.10;14.63;;;;;;;32.36;49.10;100947.99;1615150;88;21101;-52
2022/08/13 09:03:21;;;;;;;15.63;14.23;;;;;;;32.41;48.77;100948.34;1594133;88;21188;-53
2022/08/13 09:05:48;;;;;;;15.05;13.55;;;;;;;32.43;48.50;100943.62;1615819;88;21031;-53
2022/08/13 09:08:18;;;;;;;14.35;13.15;;;;;;;32.45;48.86;100944.30;1614273;88;21034;-54
2022/08/13 09:10:48;;;;;;;14.25;13.05;;;;;;;32.48;49.07;100945.36;1601592;89;21042;-49
2022/08/13 09:13:19;;;;;;;13.48;12.28;;;;;;;32.51;49.01;100940.46;1604737;89;21085;-51
2022/08/13 09:15:44;;;;;;;12.98;11.88;;;;;;;32.54;49.19;100941.98;1598397;88;21037;-52
2022/08/13 09:18:11;;;;;;;13.22;11.93;;;;;;;32.57;49.08;100942.97;1606349;89;21097;-50
2022/08/13 09:20:38;;;;;;;12.88;11.70;;;;;;;32.57;49.01;100946.52;1603464;89;21137;-52
2022/08/13 09:23:08;;;;;;;13.58;12.37;;;;;;;32.56;48.96;100942.12;1603166;89;21085;-49
2022/08/13 09:25:35;;;;;;;13.37;12.07;;;;;;;32.56;48.99;100944.00;1604503;89;21586;-50
2022/08/13 09:28:07;;;;;;;13.93;12.73;;;;;;;32.54;48.96;100941.98;1604590;89;21061;-53
2022/08/13 09:30:36;;;;;;;13.38;12.18;;;;;;;32.54;48.96;100944.67;1605387;89;21034;-50
2022/08/13 09:33:03;;;;;;;11.55;10.40;;;;;;;32.51;48.70;100943.16;1653172;85;20997;-51
2022/08/13 09:35:31;;;;;;;12.00;10.65;;;;;;;32.51;48.76;100942.30;1669591;83;21034;-49
2022/08/13 09:37:59;;;;;;;12.00;10.85;;;;;;;32.49;48.72;100943.83;1678032;83;21062;-51
2022/08/13 09:40:28;;;;;;;12.28;11.08;;;;;;;32.48;48.78;100938.62;1672281;83;21057;-50
2022/08/13 09:43:02;;;;;;;11.73;10.68;;;;;;;32.49;49.19;100940.28;1706139;81;21050;-50
2022/08/13 09:45:30;;;;;;;11.70;10.68;;;;;;;32.50;49.07;100936.59;1737604;81;21038;-51
2022/08/13 09:47:57;;;;;;;11.45;10.40;;;;;;;32.51;48.79;100943.65;1731592;81;21634;-49
2022/08/13 09:50:25;;;;;;;12.15;10.95;;;;;;;32.49;48.80;100934.90;1733015;82;21039;-53
2022/08/13 09:52:53;;;;;;;11.28;10.28;;;;;;;32.47;49.13;100936.92;1729465;82;21021;-51
2022/08/13 09:55:22;;;;;;;11.53;10.53;;;;;;;32.46;49.42;100939.30;1737244;81;21519;-48
2022/08/13 09:57:59;;;;;;;11.03;10.08;;;;;;;32.46;49.56;100946.03;1719997;81;21062;-50
2022/08/13 10:00:27;;;;;;;13.32;10.23;;;;;;;32.47;49.02;100938.27;1736922;81;21067;-52
2022/08/13 10:02:56;;;;;;;10.88;9.95;;;;;;;32.47;48.92;100947.70;1733027;82;21074;-52
2022/08/13 10:05:32;;;;;;;11.25;10.35;;;;;;;32.47;48.96;100947.70;1736720;81;21094;-51
2022/08/13 10:07:55;;;;;;;11.38;10.35;;;;;;;32.49;49.26;100951.06;1728582;81;21499;-49
2022/08/13 10:10:23;;;;;;;11.20;10.10;;;;;;;32.50;49.30;100951.41;1730488;81;21093;-53
2022/08/13 10:12:50;;;;;;;11.57;10.48;;;;;;;32.54;48.88;100948.71;1731378;81;21054;-49
2022/08/13 10:15:16;;;;;;;11.28;10.28;;;;;;;32.55;49.12;100948.53;1728003;81;21488;-53
2022/08/13 10:17:48;;;;;;;12.88;10.20;;;;;;;32.57;48.66;100953.25;1732789;81;21298;-50
2022/08/13 10:20:24;;;;;;;10.55;9.60;;;;;;;32.56;48.26;100952.89;1739385;81;20980;-51
2022/08/13 10:22:53;;;;;;;9.63;8.88;;;;;;;32.54;48.31;100951.41;1733905;81;21019;-50
2022/08/13 10:25:20;;;;;;;10.88;9.88;;;;;;;32.49;48.17;100959.99;1734594;82;21015;-50
2022/08/13 10:27:47;;;;;;;10.50;9.25;;;;;;;32.43;47.97;100955.75;1741442;81;21523;-50
2022/08/13 10:30:14;;;;;;;11.12;10.03;;;;;;;32.38;48.25;100956.74;1734720;81;21051;-48
2022/08/13 10:32:42;;;;;;;10.85;9.63;;;;;;;32.33;48.23;100967.20;1733973;81;21012;-50
2022/08/13 10:35:09;;;;;;;10.90;9.93;;;;;;;32.31;48.00;100958.45;1732648;81;21086;-51
2022/08/13 10:37:46;;;;;;;10.98;9.95;;;;;;;32.31;48.25;100958.45;1696802;84;21035;-53
2022/08/13 10:42:44;;;;;;;11.38;10.15;;;;;;;32.32;48.55;100963.66;1688089;84;20991;-51
2022/08/13 10:45:13;;;;;;;10.98;10.00;;;;;;;32.36;48.31;100964.16;1702242;84;21023;-50
2022/08/13 10:47:49;;;;;;;11.10;9.97;;;;;;;32.40;48.31;100969.54;1691709;84;21541;-53
2022/08/13 10:50:18;;;;;;;11.22;9.78;;;;;;;32.45;48.13;100963.16;1684566;84;21098;-49
2022/08/13 10:52:44;;;;;;;12.20;10.25;;;;;;;32.49;47.94;100962.69;1692029;84;21003;-51
2022/08/13 10:55:13;;;;;;;10.82;9.78;;;;;;;32.53;47.76;100964.52;1695708;84;21507;-55
2022/08/13 10:57:43;;;;;;;11.28;10.28;;;;;;;32.56;47.46;100960.16;1691694;84;21086;-49
2022/08/13 11:00:14;;;;;;;11.15;10.05;;;;;;;32.58;47.27;100955.44;1695352;84;21546;-49
2022/08/13 11:02:41;;;;;;;10.50;9.63;;;;;;;32.59;47.04;100953.06;1695303;84;21066;-50
2022/08/13 11:05:09;;;;;;;10.80;9.80;;;;;;;32.57;46.73;100959.13;1690609;84;21090;-51
2022/08/13 11:07:36;;;;;;;10.53;9.40;;;;;;;32.52;46.51;100966.38;1692063;84;21015;-52
2022/08/13 11:10:07;;;;;;;10.80;9.90;;;;;;;32.46;46.29;100960.31;1695039;84;21086;-51
2022/08/13 11:12:36;;;;;;;10.90;9.90;;;;;;;32.41;46.48;100959.12;1674052;85;21574;-51
2022/08/13 11:15:08;;;;;;;11.73;10.45;;;;;;;32.38;46.63;100960.29;1673892;85;21065;-50
2022/08/13 11:17:34;;;;;;;10.10;9.30;;;;;;;32.36;46.68;100952.03;1664917;85;21554;-51
2022/08/13 11:20:06;;;;;;;10.48;9.35;;;;;;;32.35;46.70;100955.26;1672361;85;21066;-55
2022/08/13 11:22:30;;;;;;;11.35;10.25;;;;;;;32.34;46.70;100951.36;1668092;85;21046;-51
2022/08/13 11:24:59;;;;;;;10.88;9.88;;;;;;;32.36;46.84;100946.64;1670971;85;21554;-52
2022/08/13 11:27:26;;;;;;;10.53;9.60;;;;;;;32.39;46.88;100947.67;1641167;87;21042;-53
2022/08/13 11:29:53;;;;;;;10.48;9.48;;;;;;;32.41;46.73;100948.34;1623082;88;21111;-53
2022/08/13 11:32:20;;;;;;;10.63;9.55;;;;;;;32.43;46.82;100955.25;1623780;88;21074;-50
2022/08/13 11:34:47;;;;;;;10.00;9.10;;;;;;;32.46;46.59;100946.03;1623944;88;21122;-51
2022/08/13 11:37:13;;;;;;;10.70;9.63;;;;;;;32.50;45.89;100944.67;1624102;88;21053;-52
2022/08/13 11:39:40;;;;;;;10.20;9.48;;;;;;;32.54;45.78;100943.33;1624009;88;21072;-53
2022/08/13 11:42:07;;;;;;;10.20;9.40;;;;;;;32.58;45.14;100933.89;1623036;88;21067;-51
2022/08/13 11:44:34;;;;;;;10.75;9.75;;;;;;;32.58;44.70;100932.02;1624736;88;21076;-50